»·PEaware :: JUS326 KBFI-KPSC

JUS326 :: KBFI-KPSC

FLIGHT INFORMATION

Flight Status: Arrived
Operator:
USA Jet
More flights by this operator :: More flights under this callsign
Pilot: Erik S. (3779)
Aircraft: BOEING 737-300
(B733)
More flights by this aircraft type
Origin: KBFI Boeing Field/King Co Intl
United States
Destination: KPSC Tri-Cities
United States
More flights between these airports :: More routes between these airports
Route: VAMPS V2 ELN V187 PSC
File this flight plan on PilotEdge
Remarks:
Altitude:
(Current/Filed)
23,000ft
Speed:
(Current/Filed)
400kts
Departed: 15-Dec-17 08:49 PM
Arrived: 15-Dec-17 09:22 PM
Distance/Time
Traveled:
152nm/0:33
Distance/Time
To Go:
Arrived

Flight Plot

Page will automatically refresh every two minutes.

Flight plan parsing failed; only flown route is shown


Map Options




Map Legend


Flown Route
Filed Route
Departure Airport
Arrival Airport
Navaid (VOR, NDB)
Fix

Horizontal Profiles

Position Reports

Time Latitude Longitude Heading Altitude Ground
Speed
15-Dec-17 20:26 47.534756 -122.302207 59 27ft 0kts
15-Dec-17 20:27 47.534756 -122.302207 59 27ft 0kts
15-Dec-17 20:28 47.534756 -122.302207 59 27ft 0kts
15-Dec-17 20:29 47.534756 -122.302207 59 27ft 0kts
15-Dec-17 20:30 47.534756 -122.302207 59 27ft 0kts
15-Dec-17 20:31 47.534756 -122.302207 59 27ft 0kts
15-Dec-17 20:32 47.534756 -122.302207 59 27ft 0kts
15-Dec-17 20:33 47.534756 -122.302207 59 27ft 0kts
15-Dec-17 20:34 47.534756 -122.302207 59 27ft 0kts
15-Dec-17 20:35 47.534756 -122.302207 59 27ft 0kts
15-Dec-17 20:36 47.534756 -122.302207 59 27ft 0kts
15-Dec-17 20:37 47.534756 -122.302207 59 27ft 0kts
15-Dec-17 20:38 47.534756 -122.302207 59 27ft 0kts
15-Dec-17 20:39 47.534756 -122.302207 59 27ft 0kts
15-Dec-17 20:40 47.534756 -122.302207 59 27ft 0kts
15-Dec-17 20:41 47.534756 -122.302207 59 27ft 0kts
15-Dec-17 20:42 47.534756 -122.302207 59 27ft 0kts
15-Dec-17 20:43 47.534756 -122.302207 59 27ft 0kts
15-Dec-17 20:44 47.534756 -122.302207 59 27ft 0kts
15-Dec-17 20:45 47.534756 -122.302207 59 27ft 0kts
15-Dec-17 20:46 47.534756 -122.302207 59 27ft 0kts
15-Dec-17 20:47 47.534756 -122.302207 59 27ft 0kts
15-Dec-17 20:48 47.534756 -122.302207 59 27ft 0kts
15-Dec-17 20:49 47.534756 -122.302207 59 27ft 0kts
15-Dec-17 20:50 47.534763 -122.302190 59 27ft 0kts
15-Dec-17 20:51 47.534642 -122.302589 20 27ft 2kts
15-Dec-17 20:52 47.536543 -122.305289 323 27ft 14kts
15-Dec-17 20:53 47.539056 -122.307422 333 27ft 5kts
15-Dec-17 20:54 47.540497 -122.311000 215 27ft 12kts
15-Dec-17 20:55 47.521711 -122.295546 150 220ft 178kts
15-Dec-17 20:56 47.474363 -122.256706 150 2025ft 212kts
15-Dec-17 20:57 47.418417 -122.211380 150 4287ft 257kts
15-Dec-17 20:58 47.352574 -122.158509 150 7125ft 281kts
15-Dec-17 20:59 47.336241 -122.062534 59 9728ft 282kts
15-Dec-17 21:00 47.358534 -121.945101 106 11047ft 347kts
15-Dec-17 21:01 47.327466 -121.806563 106 13350ft 364kts
15-Dec-17 21:02 47.295936 -121.661857 105 15545ft 378kts
15-Dec-17 21:03 47.263152 -121.512570 105 17429ft 390kts
15-Dec-17 21:04 47.228732 -121.358647 105 18795ft 400kts
15-Dec-17 21:05 47.195095 -121.207835 105 20046ft 409kts
15-Dec-17 21:06 47.159119 -121.047619 105 21744ft 416kts
15-Dec-17 21:07 47.122372 -120.885352 106 23063ft 427kts
15-Dec-17 21:08 47.084239 -120.717052 106 23145ft 444kts
15-Dec-17 21:09 47.044717 -120.545040 106 23157ft 445kts
15-Dec-17 21:10 47.006437 -120.372782 105 23156ft 446kts
15-Dec-17 21:11 46.969816 -120.198983 105 23156ft 448kts
15-Dec-17 21:12 46.933428 -120.027722 106 20717ft 429kts
15-Dec-17 21:13 46.904578 -119.892899 107 18609ft 421kts
15-Dec-17 21:14 46.813938 -119.764729 143 15628ft 385kts
15-Dec-17 21:15 46.737299 -119.673206 141 13561ft 358kts
15-Dec-17 21:16 46.675241 -119.598478 140 11931ft 336kts
15-Dec-17 21:17 46.622307 -119.492243 124 10426ft 302kts
15-Dec-17 21:18 46.577312 -119.394021 124 8702ft 285kts
15-Dec-17 21:19 46.534546 -119.300059 124 6539ft 274kts
15-Dec-17 21:20 46.486361 -119.195222 124 4102ft 262kts
15-Dec-17 21:21 46.453357 -119.125462 124 2989ft 231kts
15-Dec-17 21:22 46.421427 -119.059639 124 2577ft 191kts
15-Dec-17 21:23 46.389773 -119.000060 154 2634ft 177kts
15-Dec-17 21:24 46.343797 -119.010067 199 2320ft 167kts
15-Dec-17 21:25 46.309987 -119.052994 226 1628ft 158kts
15-Dec-17 21:26 46.282366 -119.094419 225 817ft 138kts
15-Dec-17 21:27 46.259278 -119.128616 224 417ft 48kts
15-Dec-17 21:28 46.255793 -119.131529 48 417ft 14kts
15-Dec-17 21:29 46.258861 -119.123525 66 417ft 30kts
15-Dec-17 21:30 46.262411 -119.111567 68 417ft 31kts
15-Dec-17 21:31 46.262527 -119.105556 162 417ft 9kts
15-Dec-17 21:32 46.262471 -119.105531 162 417ft 0kts
15-Dec-17 21:33 46.262471 -119.105531 162 417ft 0kts

Navigation Log

Ident Type
Flight plan parsing failed, navigation log unavailable